createdAt,value
2022-12-19T00:02:14.859Z,-1.14
2022-12-19T00:05:02.292Z,-1.13
2022-12-19T00:07:50.270Z,-1.14
2022-12-19T00:10:38.055Z,-1.10
2022-12-19T00:13:26.324Z,-1.09
2022-12-19T00:16:18.841Z,-1.10
2022-12-19T00:19:08.730Z,-1.08
2022-12-19T00:21:56.745Z,-1.14
2022-12-19T00:24:44.403Z,-1.10
2022-12-19T00:27:35.994Z,-1.08
2022-12-19T00:30:23.525Z,-1.02
2022-12-19T00:33:11.197Z,-1.06
2022-12-19T00:36:05.084Z,-1.07
2022-12-19T00:38:54.253Z,-1.04
2022-12-19T00:41:42.668Z,-1.05
2022-12-19T00:44:30.461Z,-1.10
2022-12-19T00:47:19.082Z,-1.03
2022-12-19T00:50:07.263Z,-1.01
2022-12-19T00:52:56.405Z,-1.00
2022-12-19T00:55:43.821Z,-1.01
2022-12-19T00:58:35.165Z,-0.98
2022-12-19T01:01:25.561Z,-1.00
2022-12-19T01:04:33.484Z,-0.89
2022-12-19T01:07:23.349Z,-0.90
2022-12-19T01:10:12.971Z,-0.87
2022-12-19T01:12:59.527Z,-0.86
2022-12-19T01:15:46.966Z,-0.84
2022-12-19T01:18:35.361Z,-0.84
2022-12-19T01:21:23.165Z,-0.83
2022-12-19T01:24:12.536Z,-0.82
2022-12-19T01:27:02.654Z,-0.82
2022-12-19T01:29:52.815Z,-0.82
2022-12-19T01:32:40.844Z,-0.80
2022-12-19T01:35:29.584Z,-0.74
2022-12-19T01:38:17.995Z,-0.72
2022-12-19T01:41:06.482Z,-0.64
2022-12-19T01:44:02.847Z,-0.67
2022-12-19T01:46:54.181Z,-0.65
2022-12-19T01:49:41.863Z,-0.68
2022-12-19T01:52:29.756Z,-0.69
2022-12-19T01:55:17.753Z,-0.61
2022-12-19T01:58:05.956Z,-0.58
2022-12-19T02:00:55.545Z,-0.58
2022-12-19T02:03:44.026Z,-0.48
2022-12-19T02:06:32.934Z,-0.48
2022-12-19T02:09:20.943Z,-0.43
2022-12-19T02:12:08.609Z,-0.48
2022-12-19T02:15:03.211Z,-0.41
2022-12-19T02:18:12.538Z,-0.31
2022-12-19T02:21:22.509Z,-0.33
2022-12-19T02:24:40.409Z,-0.33
2022-12-19T02:28:04.032Z,-0.29
2022-12-19T02:31:04.032Z,-0.35
2022-12-19T02:34:11.151Z,-0.37
2022-12-19T02:37:10.245Z,-0.37
2022-12-19T02:40:04.119Z,-0.33
2022-12-19T02:42:59.449Z,-0.28
2022-12-19T02:45:49.409Z,-0.20
2022-12-19T02:48:39.792Z,-0.13
2022-12-19T02:51:28.163Z,-0.11
2022-12-19T02:54:16.266Z,-0.09
2022-12-19T02:57:14.844Z,0.03
2022-12-19T03:00:07.745Z,0.06
2022-12-19T03:03:08.510Z,0.03
2022-12-19T03:06:06.469Z,0.03
2022-12-19T03:09:01.093Z,0.18
2022-12-19T03:11:52.375Z,0.12
2022-12-19T03:14:40.894Z,0.20
2022-12-19T03:17:29.417Z,0.20
2022-12-19T03:20:25.445Z,0.18
2022-12-19T03:23:15.367Z,0.11
2022-12-19T03:26:08.068Z,0.25
2022-12-19T03:28:58.669Z,0.24
2022-12-19T03:31:48.068Z,0.34
2022-12-19T03:34:41.247Z,0.30
2022-12-19T03:37:33.190Z,0.31
2022-12-19T03:40:25.850Z,0.33
2022-12-19T03:43:16.749Z,0.35
2022-12-19T03:46:10.724Z,0.44
2022-12-19T03:48:58.474Z,0.47
2022-12-19T03:51:59.224Z,0.49
2022-12-19T03:54:52.967Z,0.55
2022-12-19T03:57:48.434Z,0.60
2022-12-19T04:00:39.367Z,0.63
2022-12-19T04:03:28.961Z,0.60
2022-12-19T04:06:16.898Z,0.55
2022-12-19T04:09:05.256Z,0.53
2022-12-19T04:11:59.376Z,0.49
2022-12-19T04:14:49.227Z,0.45
2022-12-19T04:17:42.525Z,0.35
2022-12-19T04:20:31.538Z,0.28
2022-12-19T04:23:24.693Z,0.26
2022-12-19T04:26:14.190Z,0.26
2022-12-19T04:29:05.508Z,0.17
2022-12-19T04:31:54.790Z,0.18
2022-12-19T04:34:43.150Z,0.19
2022-12-19T04:37:32.564Z,0.17
2022-12-19T04:40:20.564Z,0.26
2022-12-19T04:43:08.759Z,0.35
2022-12-19T04:45:57.945Z,0.42
2022-12-19T04:48:47.147Z,0.44
2022-12-19T04:51:34.816Z,0.54
2022-12-19T04:54:23.056Z,0.56
2022-12-19T04:57:10.835Z,0.57
2022-12-19T04:59:58.366Z,0.54
2022-12-19T05:02:46.480Z,0.49
2022-12-19T05:05:35.846Z,0.53
2022-12-19T05:08:23.826Z,0.52
2022-12-19T05:11:19.142Z,0.53
2022-12-19T05:14:07.575Z,0.52
2022-12-19T05:17:01.285Z,0.53
2022-12-19T05:19:49.672Z,0.55
2022-12-19T05:22:38.844Z,0.59
2022-12-19T05:25:26.790Z,0.59
2022-12-19T05:28:14.535Z,0.62
2022-12-19T05:31:07.469Z,0.65
2022-12-19T05:33:55.333Z,0.64
2022-12-19T05:36:42.985Z,0.67
2022-12-19T05:39:32.312Z,0.66
2022-12-19T05:42:20.473Z,0.64
2022-12-19T05:45:09.216Z,0.69
2022-12-19T05:48:01.102Z,0.66
2022-12-19T05:50:50.454Z,0.67
2022-12-19T05:53:38.744Z,0.73
2022-12-19T05:56:28.062Z,0.75
2022-12-19T05:59:15.531Z,0.79
2022-12-19T06:02:03.371Z,0.94
2022-12-19T06:04:50.941Z,1.07
2022-12-19T06:07:38.902Z,1.13
2022-12-19T06:10:26.465Z,1.27
2022-12-19T06:13:17.035Z,1.22
2022-12-19T06:16:09.540Z,1.31
2022-12-19T06:18:57.178Z,1.40
2022-12-19T06:21:48.254Z,1.40
2022-12-19T06:24:36.498Z,1.48
2022-12-19T06:27:24.219Z,1.48
2022-12-19T06:30:15.343Z,1.59
2022-12-19T06:33:02.880Z,1.63
2022-12-19T06:35:50.178Z,1.60
2022-12-19T06:38:37.677Z,1.71
2022-12-19T06:41:43.410Z,1.78
2022-12-19T06:44:32.936Z,1.79
2022-12-19T06:47:23.750Z,1.78
2022-12-19T06:50:11.726Z,1.77
2022-12-19T06:52:59.297Z,1.82
2022-12-19T06:55:47.356Z,1.79
2022-12-19T06:58:36.002Z,1.83
2022-12-19T07:01:33.936Z,1.78
2022-12-19T07:04:26.781Z,1.78
2022-12-19T07:07:15.107Z,1.78
2022-12-19T07:10:02.709Z,1.83
2022-12-19T07:12:50.586Z,1.90
2022-12-19T07:15:40.405Z,1.89
2022-12-19T07:18:28.634Z,1.90
2022-12-19T07:21:18.154Z,1.78
2022-12-19T07:24:07.557Z,1.78
2022-12-19T07:26:56.438Z,1.73
2022-12-19T07:29:44.144Z,1.73
2022-12-19T07:32:31.566Z,1.72
2022-12-19T07:35:19.416Z,1.81
2022-12-19T07:38:09.434Z,1.81
2022-12-19T07:40:57.265Z,1.77
2022-12-19T07:43:45.803Z,1.85
2022-12-19T07:46:33.543Z,1.91
2022-12-19T07:49:22.961Z,1.82
2022-12-19T07:52:11.192Z,1.88
2022-12-19T07:55:00.362Z,1.89
2022-12-19T07:57:48.358Z,1.94
2022-12-19T08:00:35.788Z,1.98
2022-12-19T08:03:23.709Z,2.01
2022-12-19T08:06:12.556Z,2.00
2022-12-19T08:09:00.669Z,2.02
2022-12-19T08:11:50.594Z,1.98
2022-12-19T08:14:38.391Z,2.04
2022-12-19T08:17:26.477Z,2.09
2022-12-19T08:20:14.318Z,2.07
2022-12-19T08:23:02.198Z,2.05
2022-12-19T08:25:50.276Z,1.99
2022-12-19T08:28:40.055Z,1.88
2022-12-19T08:31:29.828Z,1.98
2022-12-19T08:34:17.437Z,1.84
2022-12-19T08:37:05.319Z,1.89
2022-12-19T08:39:52.956Z,1.85
2022-12-19T08:42:40.514Z,1.78
2022-12-19T08:45:30.238Z,1.79
2022-12-19T08:48:18.109Z,1.81
2022-12-19T08:51:07.117Z,1.81
2022-12-19T08:53:58.211Z,1.84
2022-12-19T08:56:47.561Z,1.86
2022-12-19T08:59:35.441Z,1.88
2022-12-19T09:02:25.790Z,1.86
2022-12-19T09:06:00.452Z,1.86
2022-12-19T09:08:21.542Z,1.86
2022-12-19T09:11:10.802Z,1.87
2022-12-19T09:13:59.362Z,1.76
2022-12-19T09:16:47.149Z,1.82
2022-12-19T09:19:36.308Z,1.74
2022-12-19T09:22:29.249Z,1.80
2022-12-19T09:25:17.146Z,1.82
2022-12-19T09:31:15.919Z,1.74
2022-12-19T09:34:03.953Z,1.74
2022-12-19T09:36:52.856Z,1.78
2022-12-19T09:39:40.427Z,1.84
2022-12-19T09:42:51.044Z,1.91
2022-12-19T09:45:54.897Z,1.97
2022-12-19T09:48:42.624Z,1.97
2022-12-19T09:51:39.367Z,2.03
2022-12-19T09:54:37.083Z,2.19
2022-12-19T09:57:31.542Z,2.19
2022-12-19T10:00:21.308Z,2.26
2022-12-19T10:03:18.853Z,2.26
2022-12-19T10:07:13.026Z,2.18
2022-12-19T10:12:21.563Z,2.23
2022-12-19T10:13:12.173Z,2.30
2022-12-19T10:16:07.127Z,2.30
2022-12-19T10:18:57.726Z,2.26
2022-12-19T10:22:17.552Z,2.28
2022-12-19T10:25:20.555Z,2.25
2022-12-19T10:28:24.858Z,2.27
2022-12-19T10:31:22.287Z,2.27
2022-12-19T10:34:20.209Z,2.26
2022-12-19T10:37:27.192Z,2.34
2022-12-19T10:40:29.261Z,2.38
2022-12-19T10:43:33.678Z,2.44
2022-12-19T10:46:36.280Z,2.47
2022-12-19T10:49:27.094Z,2.52
2022-12-19T10:52:14.846Z,2.65
2022-12-19T10:55:02.691Z,2.66
2022-12-19T10:57:50.419Z,2.71
2022-12-19T11:00:46.960Z,2.68
2022-12-19T11:03:36.086Z,2.76
2022-12-19T11:06:48.531Z,2.77
2022-12-19T11:09:40.764Z,2.83
2022-12-19T11:16:37.573Z,2.77
2022-12-19T11:19:13.711Z,2.86
2022-12-19T11:27:12.796Z,2.90
2022-12-19T11:29:19.780Z,3.03
2022-12-19T11:30:38.371Z,3.08
2022-12-19T11:30:41.546Z,3.14
2022-12-19T11:34:51.795Z,3.31
2022-12-19T11:37:43.009Z,3.25
2022-12-19T11:40:40.440Z,3.31
2022-12-19T11:43:44.935Z,3.33
2022-12-19T11:46:42.271Z,3.42
2022-12-19T11:49:37.627Z,3.48
2022-12-19T11:55:54.587Z,3.56
2022-12-19T11:58:42.099Z,3.63
2022-12-19T12:01:58.007Z,3.61
2022-12-19T12:05:02.633Z,3.58
2022-12-19T12:08:46.083Z,3.70
2022-12-19T12:16:32.965Z,3.63
2022-12-19T12:22:34.790Z,3.53
2022-12-19T12:29:35.381Z,3.36
2022-12-19T12:31:08.295Z,3.19
2022-12-19T12:31:23.774Z,3.24
2022-12-19T12:32:00.977Z,3.17
2022-12-19T12:35:36.473Z,3.24
2022-12-19T12:38:22.626Z,3.26
2022-12-19T12:41:47.487Z,3.42
2022-12-19T12:44:44.830Z,3.37
2022-12-19T12:47:33.157Z,3.51
2022-12-19T12:50:26.056Z,3.31
2022-12-19T12:53:21.407Z,3.53
2022-12-19T12:56:12.249Z,3.42
2022-12-19T12:59:22.379Z,3.45
2022-12-19T13:02:18.460Z,3.61
2022-12-19T13:05:26.910Z,3.58
2022-12-19T13:08:38.231Z,3.70
2022-12-19T13:11:59.235Z,3.64
2022-12-19T13:14:50.826Z,3.60
2022-12-19T13:18:03.377Z,3.57
2022-12-19T13:20:51.202Z,3.61
2022-12-19T13:23:48.191Z,3.69
2022-12-19T13:26:53.077Z,3.71
2022-12-19T13:29:58.160Z,3.85
2022-12-19T13:33:10.645Z,3.85
2022-12-19T13:39:38.973Z,3.89
2022-12-19T13:39:56.519Z,3.68
2022-12-19T13:43:11.449Z,3.67
2022-12-19T13:46:01.346Z,3.57
2022-12-19T13:48:51.642Z,3.58
2022-12-19T13:51:44.720Z,3.47
2022-12-19T13:54:38.891Z,3.46
2022-12-19T13:57:28.326Z,3.37
2022-12-19T14:00:20.422Z,3.31
2022-12-19T14:03:16.917Z,3.36
2022-12-19T14:06:18.428Z,3.27
2022-12-19T14:11:24.285Z,3.27
2022-12-19T14:14:00.452Z,3.31
2022-12-19T14:15:52.517Z,3.24
2022-12-19T14:18:44.489Z,3.20
2022-12-19T14:22:04.002Z,3.22
2022-12-19T14:24:42.051Z,3.26
2022-12-19T14:28:28.276Z,3.28
2022-12-19T14:30:49.115Z,3.28
2022-12-19T14:34:04.270Z,3.30
2022-12-19T14:36:52.858Z,3.36
2022-12-19T14:39:40.803Z,3.34
2022-12-19T14:43:57.812Z,3.37
2022-12-19T14:52:11.702Z,3.39
2022-12-19T14:54:10.250Z,3.41
2022-12-19T14:54:33.735Z,3.48
2022-12-19T14:56:13.129Z,3.37
2022-12-19T14:58:58.836Z,3.48
2022-12-19T15:01:54.333Z,3.46
2022-12-19T15:04:50.971Z,3.42
2022-12-19T15:07:46.316Z,3.44
2022-12-19T15:11:07.819Z,3.40
2022-12-19T15:14:51.988Z,3.42
2022-12-19T15:17:21.166Z,3.32
2022-12-19T15:20:12.177Z,3.30
2022-12-19T15:22:59.837Z,3.24
2022-12-19T15:26:05.015Z,3.13
2022-12-19T15:28:55.836Z,3.21
2022-12-19T15:31:44.982Z,3.13
2022-12-19T15:34:39.227Z,3.16
2022-12-19T15:37:29.418Z,3.15
2022-12-19T15:40:19.219Z,3.13
2022-12-19T15:43:11.293Z,3.17
2022-12-19T15:46:13.633Z,3.18
2022-12-19T15:49:01.454Z,3.15
2022-12-19T15:51:51.566Z,3.12
2022-12-19T15:54:48.843Z,3.06
2022-12-19T15:57:39.759Z,3.09
2022-12-19T16:00:30.332Z,3.09
2022-12-19T16:03:23.512Z,3.12
2022-12-19T16:06:14.593Z,3.06
2022-12-19T16:09:04.063Z,3.12
2022-12-19T16:11:53.510Z,3.06
2022-12-19T16:14:41.137Z,3.06
2022-12-19T16:17:30.463Z,3.11
2022-12-19T16:20:20.055Z,3.21
2022-12-19T16:23:07.743Z,3.20
2022-12-19T16:25:56.943Z,3.24
2022-12-19T16:28:44.487Z,3.24
2022-12-19T16:31:32.151Z,3.16
2022-12-19T16:34:21.739Z,3.22
2022-12-19T16:37:09.308Z,3.23
2022-12-19T16:39:56.930Z,3.20
2022-12-19T16:42:46.994Z,3.23
2022-12-19T16:45:36.086Z,3.19
2022-12-19T16:48:25.927Z,3.17
2022-12-19T16:51:20.908Z,3.22
2022-12-19T16:54:08.575Z,3.27
2022-12-19T16:56:56.574Z,3.33
2022-12-19T16:59:45.529Z,3.44
2022-12-19T17:02:44.785Z,3.46
2022-12-19T17:05:34.097Z,3.51
2022-12-19T17:08:21.962Z,3.56
2022-12-19T17:11:16.849Z,3.65
2022-12-19T17:14:09.713Z,3.68
2022-12-19T17:17:00.183Z,3.64
2022-12-19T17:19:48.197Z,3.63
2022-12-19T17:22:35.848Z,3.60
2022-12-19T17:25:27.678Z,3.53
2022-12-19T17:28:16.229Z,3.51
2022-12-19T17:31:07.974Z,3.38
2022-12-19T17:33:58.746Z,3.32
2022-12-19T17:36:46.542Z,3.31
2022-12-19T17:39:35.745Z,3.31
2022-12-19T17:42:25.401Z,3.09
2022-12-19T17:45:13.218Z,3.22
2022-12-19T17:48:03.777Z,3.18
2022-12-19T17:50:54.206Z,3.12
2022-12-19T17:53:43.646Z,2.98
2022-12-19T17:56:31.394Z,2.98
2022-12-19T17:59:22.200Z,3.03
2022-12-19T18:02:21.746Z,3.13
2022-12-19T18:05:19.856Z,3.09
2022-12-19T18:08:23.744Z,3.07
2022-12-19T18:11:19.395Z,3.14
2022-12-19T18:14:07.057Z,3.12
2022-12-19T18:16:55.063Z,3.16
2022-12-19T18:19:42.682Z,3.23
2022-12-19T18:22:32.450Z,3.30
2022-12-19T18:25:25.919Z,3.35
2022-12-19T18:28:14.396Z,3.43
2022-12-19T18:31:05.273Z,3.44
2022-12-19T18:33:54.217Z,3.35
2022-12-19T18:36:45.662Z,3.39
2022-12-19T18:39:34.382Z,3.36
2022-12-19T18:42:23.797Z,3.26
2022-12-19T18:45:16.531Z,3.26
2022-12-19T18:48:09.270Z,3.17
2022-12-19T18:50:58.218Z,3.30
2022-12-19T18:53:46.985Z,3.30
2022-12-19T18:56:35.056Z,3.57
2022-12-19T18:59:24.425Z,3.57
2022-12-19T19:02:26.649Z,3.55
2022-12-19T19:05:17.209Z,3.76
2022-12-19T19:08:16.372Z,3.84
2022-12-19T19:11:06.431Z,3.85
2022-12-19T19:13:55.110Z,3.92
2022-12-19T19:16:45.127Z,3.88
2022-12-19T19:19:33.071Z,3.99
2022-12-19T19:22:21.133Z,4.03
2022-12-19T19:25:09.370Z,4.02
2022-12-19T19:27:57.467Z,4.02
2022-12-19T19:30:45.733Z,3.95
2022-12-19T19:33:38.975Z,3.98
2022-12-19T19:36:31.196Z,3.88
2022-12-19T19:39:20.238Z,4.07
2022-12-19T19:42:08.103Z,4.00
2022-12-19T19:44:55.921Z,3.97
2022-12-19T19:47:44.323Z,3.90
2022-12-19T19:50:34.228Z,3.97
2022-12-19T19:53:22.052Z,3.75
2022-12-19T19:56:11.019Z,3.82
2022-12-19T19:59:00.603Z,4.10
2022-12-19T20:01:48.266Z,4.30
2022-12-19T20:04:36.490Z,4.56
2022-12-19T20:07:25.586Z,4.61
2022-12-19T20:10:13.587Z,4.59
2022-12-19T20:13:01.455Z,4.69
2022-12-19T20:15:50.066Z,4.64
2022-12-19T20:18:38.522Z,4.73
2022-12-19T20:21:26.388Z,4.70
2022-12-19T20:24:15.479Z,4.54
2022-12-19T20:27:03.109Z,4.47
2022-12-19T20:29:50.933Z,4.32
2022-12-19T20:32:38.764Z,4.42
2022-12-19T20:35:26.362Z,4.40
2022-12-19T20:38:14.084Z,4.28
2022-12-19T20:41:05.198Z,4.36
2022-12-19T20:43:53.578Z,4.39
2022-12-19T20:46:41.666Z,4.43
2022-12-19T20:49:29.634Z,4.35
2022-12-19T20:52:17.138Z,4.29
2022-12-19T20:55:04.937Z,4.34
2022-12-19T20:57:54.037Z,4.33
2022-12-19T21:00:42.142Z,4.33
2022-12-19T21:03:30.539Z,4.34
2022-12-19T21:06:20.477Z,4.40
2022-12-19T21:09:07.803Z,4.45
2022-12-19T21:11:55.608Z,4.59
2022-12-19T21:14:44.928Z,4.65
2022-12-19T21:17:32.548Z,4.68
2022-12-19T21:20:20.541Z,4.70
2022-12-19T21:23:08.118Z,4.71
2022-12-19T21:25:59.218Z,4.73
2022-12-19T21:28:47.238Z,4.79
2022-12-19T21:31:36.305Z,4.78
2022-12-19T21:34:24.285Z,4.71
2022-12-19T21:37:12.053Z,4.82
2022-12-19T21:39:59.917Z,4.86
2022-12-19T21:42:48.377Z,4.81
2022-12-19T21:45:36.174Z,4.81
2022-12-19T21:48:25.054Z,4.85
2022-12-19T21:51:14.188Z,4.76
2022-12-19T21:54:04.107Z,4.63
2022-12-19T21:56:51.760Z,4.53
2022-12-19T21:59:39.571Z,4.60
2022-12-19T22:02:27.411Z,4.57
2022-12-19T22:05:17.371Z,4.62
2022-12-19T22:08:04.912Z,4.53
2022-12-19T22:10:52.756Z,4.57
2022-12-19T22:13:39.980Z,4.65
2022-12-19T22:16:27.640Z,4.75
2022-12-19T22:19:15.833Z,4.60
2022-12-19T22:22:05.085Z,4.78
2022-12-19T22:24:53.915Z,4.95
2022-12-19T22:27:41.845Z,4.90
2022-12-19T22:30:29.245Z,4.83
2022-12-19T22:33:16.692Z,4.93
2022-12-19T22:36:07.136Z,4.73
2022-12-19T22:38:56.903Z,4.91
2022-12-19T22:41:45.000Z,4.79
2022-12-19T22:44:32.515Z,4.80
2022-12-19T22:47:20.166Z,4.74
2022-12-19T22:50:10.622Z,4.81
2022-12-19T22:52:58.076Z,4.82
2022-12-19T22:55:47.230Z,4.79
2022-12-19T22:58:36.711Z,4.75
2022-12-19T23:01:26.430Z,4.81
2022-12-19T23:04:16.270Z,4.87
2022-12-19T23:07:04.348Z,4.96
2022-12-19T23:09:51.856Z,4.74
2022-12-19T23:12:41.022Z,4.73
2022-12-19T23:15:28.406Z,5.07
2022-12-19T23:18:16.862Z,4.88
2022-12-19T23:21:07.670Z,5.03
2022-12-19T23:23:58.251Z,5.27
2022-12-19T23:26:45.985Z,5.30
2022-12-19T23:29:35.005Z,5.20
2022-12-19T23:32:22.298Z,5.08
2022-12-19T23:35:29.818Z,5.24
2022-12-19T23:38:17.443Z,5.35
2022-12-19T23:41:06.104Z,5.06
2022-12-19T23:43:53.733Z,5.22
2022-12-19T23:46:42.745Z,5.57
2022-12-19T23:49:30.676Z,5.59
2022-12-19T23:52:18.206Z,5.49
2022-12-19T23:55:06.166Z,5.40
2022-12-19T23:57:53.486Z,5.36
